Manasota, Florida
Current Conditions -  °F | °C
As of 5:53 PM on Monday 20 Oct 2014 (Local Time) from KPGD Reporting Station
Clear Clear  
Wind Chill: 85°   Ceiling: Unl
Heat Index: 86°   Visibility: 10mi
Dew Point: 63°   Wind: 7mph
Humidity: 48%   Direction: 320°NW
Pressure: 29.94"   Gusts: NA
Location:  27.01°N, 82.4°W
Report Text: KPGD 202153Z 32006KT 10SM CLR 29/17 A2994 RMK AO2 SLP138 T02940172
Loading
Personal Weather Stations






























Interactive Weather Map
Tropical Storm Tracking
New forecast layout! Learn more

10-Day Weather Forecast

Advertisements
Track Severe Weather on mobile